createdAt,value
2022-11-08T00:02:10.808Z,67.17
2022-11-08T00:05:33.750Z,66.79
2022-11-08T00:08:56.471Z,64.63
2022-11-08T00:12:19.050Z,64.54
2022-11-08T00:15:23.401Z,63.06
2022-11-08T00:18:27.669Z,61.88
2022-11-08T00:21:31.973Z,62.01
2022-11-08T00:24:36.545Z,60.43
2022-11-08T00:27:41.016Z,58.43
2022-11-08T00:30:45.389Z,57.94
2022-11-08T00:33:49.637Z,57.75
2022-11-08T00:36:54.477Z,56.29
2022-11-08T00:39:58.698Z,56.82
2022-11-08T00:43:03.086Z,56.39
2022-11-08T00:46:07.405Z,55.10
2022-11-08T00:49:12.567Z,55.33
2022-11-08T00:52:16.612Z,51.54
2022-11-08T00:55:20.962Z,53.52
2022-11-08T00:58:27.720Z,53.05
2022-11-08T01:01:32.802Z,51.29
2022-11-08T01:04:37.759Z,48.06
2022-11-08T01:07:42.119Z,48.18
2022-11-08T01:10:49.366Z,49.14
2022-11-08T01:13:57.564Z,49.97
2022-11-08T01:17:01.975Z,49.59
2022-11-08T01:20:07.171Z,43.19
2022-11-08T01:23:13.166Z,44.24
2022-11-08T01:26:19.372Z,43.74
2022-11-08T01:29:23.450Z,47.26
2022-11-08T01:32:27.562Z,45.32
2022-11-08T01:35:35.290Z,46.58
2022-11-08T01:38:40.229Z,48.52
2022-11-08T01:41:44.540Z,47.15
2022-11-08T01:45:01.585Z,46.55
2022-11-08T01:48:06.593Z,47.97
2022-11-08T01:51:14.335Z,47.84
2022-11-08T01:54:24.196Z,45.17
2022-11-08T01:58:07.628Z,42.80
2022-11-08T02:01:13.962Z,43.19
2022-11-08T02:04:18.691Z,45.05
2022-11-08T02:07:24.165Z,46.02
2022-11-08T02:10:35.130Z,42.68
2022-11-08T02:13:40.306Z,44.66
2022-11-08T02:16:44.767Z,44.71
2022-11-08T02:19:52.041Z,43.93
2022-11-08T02:23:14.196Z,43.02
2022-11-08T02:26:21.434Z,43.52
2022-11-08T02:29:25.716Z,44.83
2022-11-08T02:32:41.661Z,42.05
2022-11-08T02:35:49.706Z,43.57
2022-11-08T02:38:57.053Z,41.22
2022-11-08T02:42:03.092Z,42.48
2022-11-08T02:45:09.186Z,42.57
2022-11-08T02:48:14.297Z,40.35
2022-11-08T02:51:18.990Z,41.79
2022-11-08T02:54:23.582Z,40.78
2022-11-08T02:57:27.960Z,40.83
2022-11-08T03:00:33.316Z,41.77
2022-11-08T03:03:37.973Z,40.19
2022-11-08T03:06:42.262Z,41.31
2022-11-08T03:09:46.613Z,40.43
2022-11-08T03:12:59.182Z,41.15
2022-11-08T03:16:07.540Z,39.92
2022-11-08T03:19:13.317Z,40.58
2022-11-08T03:22:17.305Z,39.39
2022-11-08T03:25:21.571Z,39.06
2022-11-08T03:28:25.999Z,40.41
2022-11-08T03:31:30.439Z,38.96
2022-11-08T03:34:34.661Z,38.95
2022-11-08T03:37:39.100Z,36.90
2022-11-08T03:40:44.138Z,37.91
2022-11-08T03:43:48.508Z,38.57
2022-11-08T03:46:52.692Z,38.54
2022-11-08T03:49:56.992Z,37.47
2022-11-08T03:53:01.263Z,38.52
2022-11-08T03:56:05.993Z,38.85
2022-11-08T03:59:12.518Z,39.21
2022-11-08T04:02:17.031Z,38.39
2022-11-08T04:05:23.109Z,39.05
2022-11-08T04:08:27.506Z,38.26
2022-11-08T04:11:50.389Z,37.82
2022-11-08T04:15:13.179Z,38.08
2022-11-08T04:18:35.927Z,38.35
2022-11-08T04:21:40.279Z,38.18
2022-11-08T04:24:45.145Z,36.90
2022-11-08T04:27:49.555Z,36.63
2022-11-08T04:31:06.828Z,37.25
2022-11-08T04:34:11.357Z,36.71
2022-11-08T04:37:15.554Z,37.31
2022-11-08T04:40:20.170Z,36.41
2022-11-08T04:43:24.842Z,36.38
2022-11-08T04:46:30.777Z,36.70
2022-11-08T04:49:34.894Z,35.26
2022-11-08T04:52:39.228Z,36.47
2022-11-08T04:55:43.676Z,36.06
2022-11-08T04:58:53.227Z,36.86
2022-11-08T05:01:57.899Z,36.92
2022-11-08T05:05:02.097Z,36.17
2022-11-08T05:08:07.459Z,36.18
2022-11-08T05:11:16.948Z,34.87
2022-11-08T05:14:21.461Z,35.72
2022-11-08T05:17:25.506Z,34.07
2022-11-08T05:20:48.332Z,34.79
2022-11-08T05:23:53.197Z,35.03
2022-11-08T05:26:57.781Z,35.46
2022-11-08T05:30:02.458Z,35.44
2022-11-08T05:33:07.443Z,35.48
2022-11-08T05:36:14.218Z,35.53
2022-11-08T05:39:18.445Z,35.85
2022-11-08T05:42:22.779Z,36.02
2022-11-08T05:45:27.197Z,34.98
2022-11-08T05:48:32.059Z,35.22
2022-11-08T05:51:36.333Z,35.17
2022-11-08T05:54:40.529Z,35.51
2022-11-08T05:57:44.608Z,35.80
2022-11-08T06:00:48.819Z,35.58
2022-11-08T06:03:53.306Z,35.75
2022-11-08T06:06:57.551Z,35.89
2022-11-08T06:10:02.010Z,35.89
2022-11-08T06:13:07.331Z,35.61
2022-11-08T06:16:14.198Z,35.93
2022-11-08T06:19:18.406Z,36.04
2022-11-08T06:22:22.550Z,36.07
2022-11-08T06:25:27.021Z,35.81
2022-11-08T06:28:31.333Z,36.20
2022-11-08T06:31:41.884Z,36.10
2022-11-08T06:34:50.016Z,36.17
2022-11-08T06:37:59.891Z,36.23
2022-11-08T06:41:05.137Z,36.39
2022-11-08T06:44:09.496Z,36.20
2022-11-08T06:47:13.627Z,36.13
2022-11-08T06:50:17.794Z,36.46
2022-11-08T06:53:22.411Z,36.04
2022-11-08T06:56:27.140Z,36.33
2022-11-08T06:59:31.587Z,36.02
2022-11-08T07:02:36.361Z,36.42
2022-11-08T07:05:40.536Z,36.18
2022-11-08T07:08:45.086Z,36.81
2022-11-08T07:11:49.388Z,36.30
2022-11-08T07:14:53.665Z,36.68
2022-11-08T07:18:03.223Z,36.74
2022-11-08T07:21:07.783Z,36.48
2022-11-08T07:24:12.219Z,36.62
2022-11-08T07:27:16.762Z,36.68
2022-11-08T07:30:20.888Z,36.92
2022-11-08T07:33:25.328Z,37.16
2022-11-08T07:36:29.760Z,37.42
2022-11-08T07:39:34.170Z,37.64
2022-11-08T07:43:09.651Z,38.81
2022-11-08T07:46:04.271Z,37.95
2022-11-08T07:49:08.744Z,39.16
2022-11-08T07:52:13.326Z,39.51
2022-11-08T07:55:17.594Z,40.44
2022-11-08T07:58:22.027Z,40.83
2022-11-08T08:01:26.486Z,41.05
2022-11-08T08:04:31.790Z,41.31
2022-11-08T08:07:37.368Z,42.68
2022-11-08T08:10:42.633Z,42.36
2022-11-08T08:13:47.324Z,43.61
2022-11-08T08:16:51.953Z,43.00
2022-11-08T08:19:56.541Z,44.24
2022-11-08T08:23:01.869Z,44.14
2022-11-08T08:26:06.454Z,44.35
2022-11-08T08:29:10.913Z,44.51
2022-11-08T08:32:15.698Z,44.16
2022-11-08T08:35:20.223Z,44.97
2022-11-08T08:38:26.012Z,45.34
2022-11-08T08:41:30.056Z,44.94
2022-11-08T08:44:34.990Z,45.22
2022-11-08T08:47:39.370Z,45.57
2022-11-08T08:50:43.782Z,45.63
2022-11-08T08:53:48.223Z,45.46
2022-11-08T08:56:54.805Z,45.65
2022-11-08T09:03:23.673Z,46.12
2022-11-08T09:06:28.190Z,45.95
2022-11-08T09:09:32.692Z,46.53
2022-11-08T09:12:37.628Z,46.67
2022-11-08T09:15:42.404Z,46.52
2022-11-08T09:18:46.750Z,46.90
2022-11-08T09:21:51.345Z,48.85
2022-11-08T09:24:55.683Z,48.84
2022-11-08T09:28:00.135Z,49.60
2022-11-08T09:31:07.264Z,49.16
2022-11-08T09:34:11.726Z,49.17
2022-11-08T09:37:16.107Z,49.26
2022-11-08T09:40:34.242Z,48.71
2022-11-08T09:44:00.885Z,48.88
2022-11-08T09:47:12.796Z,52.05
2022-11-08T09:50:39.699Z,52.12
2022-11-08T09:54:05.164Z,53.97
2022-11-08T09:58:00.392Z,52.61
2022-11-08T10:01:05.581Z,50.19
2022-11-08T10:04:17.536Z,50.83
2022-11-08T10:07:37.806Z,50.58
2022-11-08T10:10:48.657Z,52.24
2022-11-08T10:14:26.619Z,52.73
2022-11-08T10:17:34.203Z,51.59
2022-11-08T10:20:59.611Z,52.25
2022-11-08T10:24:10.472Z,51.35
2022-11-08T10:27:34.207Z,52.57
2022-11-08T10:30:41.744Z,53.21
2022-11-08T10:33:56.383Z,54.17
2022-11-08T10:37:07.598Z,53.35
2022-11-08T10:40:26.634Z,52.76
2022-11-08T10:43:47.013Z,53.55
2022-11-08T10:46:57.452Z,53.72
2022-11-08T10:50:04.397Z,53.75
2022-11-08T10:53:24.238Z,54.34
2022-11-08T10:56:29.920Z,54.08
2022-11-08T10:59:35.099Z,53.90
2022-11-08T11:02:39.816Z,54.31
2022-11-08T11:05:59.712Z,55.52
2022-11-08T11:09:21.213Z,56.31
2022-11-08T11:12:26.527Z,55.57
2022-11-08T11:15:45.084Z,56.49
2022-11-08T11:18:54.042Z,54.05
2022-11-08T11:22:08.168Z,56.67
2022-11-08T11:25:21.618Z,56.22
2022-11-08T11:28:29.129Z,56.13
2022-11-08T11:31:45.554Z,55.61
2022-11-08T11:35:05.478Z,55.82
2022-11-08T11:38:21.041Z,55.67
2022-11-08T11:41:52.756Z,57.44
2022-11-08T11:45:21.111Z,58.49
2022-11-08T11:48:37.112Z,57.22
2022-11-08T11:51:46.303Z,55.63
2022-11-08T11:54:51.737Z,55.38
2022-11-08T11:58:27.928Z,58.30
2022-11-08T12:01:52.003Z,58.07
2022-11-08T12:05:02.419Z,58.11
2022-11-08T12:08:43.141Z,58.84
2022-11-08T12:12:20.974Z,59.20
2022-11-08T12:15:58.254Z,57.55
2022-11-08T12:19:31.861Z,57.78
2022-11-08T12:23:00.574Z,56.94
2022-11-08T12:26:25.567Z,57.55
2022-11-08T12:30:04.239Z,58.39
2022-11-08T12:33:57.647Z,59.66
2022-11-08T12:37:15.136Z,58.39
2022-11-08T12:40:32.935Z,59.83
2022-11-08T12:44:00.374Z,59.63
2022-11-08T12:47:25.326Z,60.54
2022-11-08T12:50:34.589Z,61.80
2022-11-08T12:53:41.773Z,58.67
2022-11-08T12:56:50.902Z,58.48
2022-11-08T13:00:17.368Z,59.58
2022-11-08T13:03:42.572Z,59.16
2022-11-08T13:06:57.150Z,58.16
2022-11-08T13:10:04.700Z,57.62
2022-11-08T13:13:25.421Z,59.30
2022-11-08T13:16:40.711Z,60.20
2022-11-08T13:19:48.326Z,60.33
2022-11-08T13:23:01.191Z,60.42
2022-11-08T13:26:35.513Z,62.29
2022-11-08T13:29:40.049Z,60.81
2022-11-08T13:32:47.496Z,61.70
2022-11-08T13:36:13.579Z,61.03
2022-11-08T13:39:32.927Z,61.29
2022-11-08T13:42:37.246Z,61.83
2022-11-08T13:45:41.702Z,62.47
2022-11-08T13:49:06.317Z,62.98
2022-11-08T13:52:48.634Z,64.19
2022-11-08T13:55:57.993Z,62.31
2022-11-08T13:59:02.209Z,62.18
2022-11-08T14:02:26.504Z,64.04
2022-11-08T14:05:43.472Z,62.31
2022-11-08T14:08:59.393Z,61.94
2022-11-08T14:12:27.798Z,64.11
2022-11-08T14:15:58.251Z,64.04
2022-11-08T14:19:31.827Z,63.70
2022-11-08T14:22:36.142Z,63.64
2022-11-08T14:25:41.157Z,63.13
2022-11-08T14:28:47.436Z,63.21
2022-11-08T14:32:16.620Z,63.43
2022-11-08T14:35:26.746Z,63.96
2022-11-08T14:38:34.393Z,63.62
2022-11-08T14:41:38.880Z,62.79
2022-11-08T14:44:45.476Z,63.79
2022-11-08T14:48:00.363Z,64.36
2022-11-08T14:51:07.217Z,63.98
2022-11-08T14:54:38.209Z,64.60
2022-11-08T14:57:47.734Z,64.37
2022-11-08T15:00:52.218Z,64.52
2022-11-08T15:04:03.908Z,64.50
2022-11-08T15:07:10.675Z,65.33
2022-11-08T15:10:15.270Z,64.46
2022-11-08T15:13:20.118Z,63.89
2022-11-08T15:16:25.380Z,64.68
2022-11-08T15:19:45.370Z,65.48
2022-11-08T15:22:54.128Z,65.09
2022-11-08T15:26:01.877Z,65.71
2022-11-08T15:29:16.810Z,68.01
2022-11-08T15:32:22.959Z,65.82
2022-11-08T15:35:40.591Z,67.44
2022-11-08T15:38:50.377Z,65.78
2022-11-08T15:42:24.264Z,68.51
2022-11-08T15:45:36.419Z,66.18
2022-11-08T15:48:42.174Z,66.21
2022-11-08T15:51:47.324Z,66.22
2022-11-08T15:54:51.523Z,65.61
2022-11-08T15:57:56.510Z,66.65
2022-11-08T16:01:02.904Z,67.32
2022-11-08T16:04:14.105Z,65.67
2022-11-08T16:07:18.625Z,66.22
2022-11-08T16:10:33.698Z,66.55
2022-11-08T16:13:40.764Z,66.34
2022-11-08T16:16:45.744Z,65.68
2022-11-08T16:19:50.244Z,67.18
2022-11-08T16:22:56.120Z,67.29
2022-11-08T16:26:01.781Z,67.00
2022-11-08T16:29:06.655Z,67.28
2022-11-08T16:32:11.659Z,66.58
2022-11-08T16:35:18.225Z,65.31
2022-11-08T16:38:29.426Z,66.15
2022-11-08T16:41:35.771Z,66.28
2022-11-08T16:44:45.223Z,66.96
2022-11-08T16:47:51.715Z,64.89
2022-11-08T16:51:04.221Z,63.00
2022-11-08T16:54:19.863Z,64.22
2022-11-08T16:57:39.596Z,64.43
2022-11-08T17:00:46.211Z,64.11
2022-11-08T17:03:50.691Z,63.25
2022-11-08T17:06:55.939Z,64.12
2022-11-08T17:10:00.370Z,63.75
2022-11-08T17:13:05.037Z,64.02
2022-11-08T17:16:13.082Z,62.95
2022-11-08T17:19:17.420Z,61.17
2022-11-08T17:22:21.772Z,60.67
2022-11-08T17:25:27.028Z,60.56
2022-11-08T17:28:31.529Z,60.61
2022-11-08T17:31:36.259Z,59.97
2022-11-08T17:34:40.830Z,60.11
2022-11-08T17:37:45.230Z,59.76
2022-11-08T17:40:49.660Z,60.01
2022-11-08T17:43:53.680Z,59.29
2022-11-08T17:46:58.209Z,59.14
2022-11-08T17:50:06.342Z,59.11
2022-11-08T17:53:10.796Z,59.47
2022-11-08T17:56:15.365Z,59.53
2022-11-08T17:59:20.135Z,59.05
2022-11-08T18:02:28.232Z,59.03
2022-11-08T18:05:32.750Z,59.06
2022-11-08T18:08:37.041Z,58.73
2022-11-08T18:11:48.458Z,58.79
2022-11-08T18:14:52.571Z,58.24
2022-11-08T18:17:57.152Z,58.51
2022-11-08T18:21:01.421Z,57.93
2022-11-08T18:24:05.950Z,57.66
2022-11-08T18:27:10.414Z,58.02
2022-11-08T18:30:15.078Z,57.22
2022-11-08T18:33:22.037Z,57.80
2022-11-08T18:36:29.430Z,58.08
2022-11-08T18:39:34.100Z,57.91
2022-11-08T18:42:38.673Z,57.47
2022-11-08T18:45:43.011Z,57.46
2022-11-08T18:48:47.869Z,56.81
2022-11-08T18:51:52.996Z,56.58
2022-11-08T18:54:58.567Z,57.17
2022-11-08T18:58:04.387Z,56.28
2022-11-08T19:01:08.629Z,57.32
2022-11-08T19:04:14.401Z,56.90
2022-11-08T19:07:18.754Z,56.39
2022-11-08T19:10:23.196Z,57.26
2022-11-08T19:13:29.670Z,56.92
2022-11-08T19:16:34.227Z,56.85
2022-11-08T19:19:38.490Z,57.20
2022-11-08T19:22:43.106Z,57.66
2022-11-08T19:25:55.373Z,57.75
2022-11-08T19:29:00.231Z,58.14
2022-11-08T19:32:05.007Z,57.96
2022-11-08T19:35:10.926Z,57.26
2022-11-08T19:38:16.971Z,57.70
2022-11-08T19:41:23.453Z,57.86
2022-11-08T19:44:28.209Z,58.52
2022-11-08T19:47:33.019Z,57.91
2022-11-08T19:50:37.334Z,57.96
2022-11-08T19:53:42.504Z,57.74
2022-11-08T20:00:12.388Z,58.07
2022-11-08T20:03:16.368Z,57.45
2022-11-08T20:06:22.766Z,56.95
2022-11-08T20:09:30.595Z,56.70
2022-11-08T20:12:35.574Z,57.09
2022-11-08T20:15:39.837Z,56.64
2022-11-08T20:18:44.804Z,56.89
2022-11-08T20:21:49.370Z,56.34
2022-11-08T20:24:53.851Z,56.43
2022-11-08T20:27:57.814Z,56.62
2022-11-08T20:31:04.453Z,56.43
2022-11-08T20:34:11.105Z,57.64
2022-11-08T20:37:15.565Z,57.77
2022-11-08T20:40:19.936Z,58.13
2022-11-08T20:43:25.150Z,57.10
2022-11-08T20:46:30.532Z,57.65
2022-11-08T20:49:34.709Z,57.88
2022-11-08T20:52:39.207Z,57.63
2022-11-08T20:55:43.229Z,57.32
2022-11-08T20:58:49.038Z,57.17
2022-11-08T21:01:53.382Z,57.28
2022-11-08T21:04:57.749Z,57.34
2022-11-08T21:08:19.814Z,57.31
2022-11-08T21:11:28.625Z,57.00
2022-11-08T21:14:33.064Z,56.82
2022-11-08T21:17:37.670Z,57.52
2022-11-08T21:20:42.562Z,56.82
2022-11-08T21:23:48.787Z,56.79
2022-11-08T21:26:53.053Z,56.86
2022-11-08T21:29:57.420Z,57.74
2022-11-08T21:33:01.666Z,56.95
2022-11-08T21:36:06.889Z,57.30
2022-11-08T21:39:11.842Z,57.06
2022-11-08T21:42:16.295Z,56.50
2022-11-08T21:45:21.425Z,56.36
2022-11-08T21:48:25.588Z,55.90
2022-11-08T21:51:30.866Z,56.30
2022-11-08T21:54:35.157Z,55.77
2022-11-08T21:57:40.504Z,56.08
2022-11-08T22:00:50.791Z,56.33
2022-11-08T22:03:55.523Z,56.21
2022-11-08T22:06:59.849Z,56.01
2022-11-08T22:10:05.359Z,56.17
2022-11-08T22:13:09.810Z,57.02
2022-11-08T22:16:14.124Z,56.74
2022-11-08T22:19:18.341Z,56.10
2022-11-08T22:22:23.144Z,57.23
2022-11-08T22:25:27.384Z,56.64
2022-11-08T22:28:31.719Z,57.47
2022-11-08T22:31:36.247Z,57.96
2022-11-08T22:34:40.577Z,56.48
2022-11-08T22:37:44.683Z,56.76
2022-11-08T22:40:49.306Z,56.66
2022-11-08T22:43:54.032Z,56.96
2022-11-08T22:46:58.281Z,56.79
2022-11-08T22:50:02.641Z,57.03
2022-11-08T22:53:07.552Z,57.26
2022-11-08T22:56:12.835Z,56.57
2022-11-08T22:59:17.333Z,56.40
2022-11-08T23:02:21.575Z,57.14
2022-11-08T23:05:25.785Z,56.49
2022-11-08T23:08:31.411Z,55.49
2022-11-08T23:11:54.175Z,55.78
2022-11-08T23:15:16.793Z,55.49
2022-11-08T23:18:23.162Z,55.34
2022-11-08T23:21:45.857Z,54.80
2022-11-08T23:24:50.479Z,54.49
2022-11-08T23:28:13.272Z,54.63
2022-11-08T23:31:35.773Z,54.14
2022-11-08T23:34:40.003Z,53.87
2022-11-08T23:37:44.532Z,53.38
2022-11-08T23:41:07.346Z,53.28
2022-11-08T23:44:26.992Z,53.32
2022-11-08T23:47:31.154Z,53.58
2022-11-08T23:50:35.532Z,52.59
2022-11-08T23:53:40.703Z,51.91
2022-11-08T23:56:45.982Z,52.49
2022-11-08T23:59:50.332Z,52.31
